Time;durP1;ratioP1;P1;durP2;ratioP2;P2;SDS_P1;SDS_P2;PMS_P1;PMS_P2;Temp;Humidity;BMP_temperature;BMP_pressure;BME280_temperature;BME280_humidity;BME280_pressure;Samples;Min_cycle;Max_cycle;Signal;HPM_P1;HPM_P2
2023/05/21 00:00:38;;;;;;;0.00;0.00;;;;;;;;;;1750725;28;20246;-75
2023/05/21 00:01:31;;;;;;;0.00;0.00;;;;;;;;;;1753270;28;20201;-75
2023/05/21 00:02:22;;;;;;;0.00;0.00;;;;;;;;;;1748237;28;20212;-74
2023/05/21 00:03:14;;;;;;;0.00;0.00;;;;;;;;;;1753440;28;20204;-74
2023/05/21 00:04:06;;;;;;;0.00;0.00;;;;;;;;;;1753032;28;20212;-75
2023/05/21 00:04:58;;;;;;;0.00;0.00;;;;;;;;;;1753662;28;20203;-75
2023/05/21 00:05:49;;;;;;;0.00;0.00;;;;;;;;;;1753226;28;20577;-75
2023/05/21 00:06:41;;;;;;;0.00;0.00;;;;;;;;;;1753180;28;20214;-74
2023/05/21 00:07:32;;;;;;;0.00;0.00;;;;;;;;;;1752700;28;20206;-75
2023/05/21 00:08:24;;;;;;;0.00;0.00;;;;;;;;;;1752827;28;20519;-75
2023/05/21 00:09:15;;;;;;;0.00;0.00;;;;;;;;;;1753276;28;20287;-75
2023/05/21 00:10:08;;;;;;;0.00;0.00;;;;;;;;;;1753163;28;20202;-75
2023/05/21 00:10:59;;;;;;;0.00;0.00;;;;;;;;;;1753542;28;20268;-75
2023/05/21 00:11:51;;;;;;;0.00;0.00;;;;;;;;;;1753014;28;20225;-75
2023/05/21 00:12:42;;;;;;;0.00;0.00;;;;;;;;;;1753267;28;20493;-75
2023/05/21 00:13:35;;;;;;;0.00;0.00;;;;;;;;;;1752862;28;20684;-75
2023/05/21 00:14:26;;;;;;;0.00;0.00;;;;;;;;;;1753164;28;20206;-75
2023/05/21 00:15:18;;;;;;;0.00;0.00;;;;;;;;;;1753294;28;20194;-75
2023/05/21 00:16:10;;;;;;;0.00;0.00;;;;;;;;;;1753367;28;20203;-75
2023/05/21 00:17:01;;;;;;;0.00;0.00;;;;;;;;;;1752914;28;20198;-75
2023/05/21 00:17:53;;;;;;;0.00;0.00;;;;;;;;;;1752433;28;20217;-75
2023/05/21 00:18:44;;;;;;;0.00;0.00;;;;;;;;;;1752360;28;20622;-75
2023/05/21 00:19:35;;;;;;;0.00;0.00;;;;;;;;;;1753471;28;20211;-76
2023/05/21 00:20:28;;;;;;;0.00;0.00;;;;;;;;;;1753193;28;20235;-76
2023/05/21 00:21:21;;;;;;;0.00;0.00;;;;;;;;;;1752663;28;20647;-76
2023/05/21 00:22:13;;;;;;;0.00;0.00;;;;;;;;;;1753034;28;20629;-76
2023/05/21 00:23:05;;;;;;;0.00;0.00;;;;;;;;;;1753410;28;20208;-75
2023/05/21 00:23:56;;;;;;;0.00;0.00;;;;;;;;;;1753245;28;20751;-75
2023/05/21 00:24:48;;;;;;;0.00;0.00;;;;;;;;;;1753371;28;20306;-75
2023/05/21 00:25:39;;;;;;;0.00;0.00;;;;;;;;;;1749228;28;20240;-75
2023/05/21 00:26:31;;;;;;;0.00;0.00;;;;;;;;;;1753466;28;20204;-75
2023/05/21 00:27:22;;;;;;;0.00;0.00;;;;;;;;;;1752732;28;20593;-75
2023/05/21 00:28:14;;;;;;;0.00;0.00;;;;;;;;;;1753393;28;20554;-75
2023/05/21 00:29:06;;;;;;;0.00;0.00;;;;;;;;;;1752618;28;20267;-75
2023/05/21 00:29:57;;;;;;;0.00;0.00;;;;;;;;;;1753563;28;20200;-75
2023/05/21 00:30:49;;;;;;;0.00;0.00;;;;;;;;;;1753522;28;20206;-75
2023/05/21 00:31:40;;;;;;;0.00;0.00;;;;;;;;;;1752887;28;20222;-75
2023/05/21 00:32:32;;;;;;;0.00;0.00;;;;;;;;;;1753047;28;20198;-75
2023/05/21 00:33:25;;;;;;;0.00;0.00;;;;;;;;;;1753026;28;20264;-75
2023/05/21 00:34:17;;;;;;;0.00;0.00;;;;;;;;;;1749597;28;20234;-76
2023/05/21 00:35:08;;;;;;;0.00;0.00;;;;;;;;;;1753492;28;20292;-76
2023/05/21 00:36:00;;;;;;;0.00;0.00;;;;;;;;;;1753685;28;20230;-76
2023/05/21 00:36:54;;;;;;;0.00;0.00;;;;;;;;;;1752976;28;20230;-75
2023/05/21 00:37:46;;;;;;;0.00;0.00;;;;;;;;;;1753112;28;20213;-75
2023/05/21 00:38:37;;;;;;;0.00;0.00;;;;;;;;;;1752673;28;20207;-76
2023/05/21 00:39:29;;;;;;;0.00;0.00;;;;;;;;;;1753103;28;20206;-76
2023/05/21 00:40:20;;;;;;;0.00;0.00;;;;;;;;;;1751237;28;20695;-76
2023/05/21 00:41:12;;;;;;;0.00;0.00;;;;;;;;;;1753461;28;20596;-76
2023/05/21 00:42:03;;;;;;;0.00;0.00;;;;;;;;;;1752885;28;20222;-75
2023/05/21 00:42:56;;;;;;;0.00;0.00;;;;;;;;;;1753895;28;20214;-76
2023/05/21 00:43:46;;;;;;;0.00;0.00;;;;;;;;;;1752445;28;20223;-76
2023/05/21 00:44:40;;;;;;;0.00;0.00;;;;;;;;;;1753402;28;20213;-76
2023/05/21 00:45:31;;;;;;;0.00;0.00;;;;;;;;;;1753339;28;20647;-76
2023/05/21 00:46:23;;;;;;;0.00;0.00;;;;;;;;;;1753353;28;20501;-76
2023/05/21 00:47:17;;;;;;;0.00;0.00;;;;;;;;;;1752618;28;20198;-76
2023/05/21 00:48:09;;;;;;;0.00;0.00;;;;;;;;;;1753058;28;20544;-76
2023/05/21 00:49:00;;;;;;;0.00;0.00;;;;;;;;;;1752553;28;20215;-76
2023/05/21 00:49:52;;;;;;;0.00;0.00;;;;;;;;;;1752987;28;20237;-76
2023/05/21 00:50:44;;;;;;;0.00;0.00;;;;;;;;;;1753382;28;20252;-76
2023/05/21 00:51:35;;;;;;;0.00;0.00;;;;;;;;;;1753072;28;20259;-76
2023/05/21 00:52:26;;;;;;;0.00;0.00;;;;;;;;;;1752565;28;20205;-76
2023/05/21 00:53:18;;;;;;;0.00;0.00;;;;;;;;;;1753001;28;20360;-76
2023/05/21 00:54:09;;;;;;;0.00;0.00;;;;;;;;;;1752607;28;20202;-76
2023/05/21 00:55:04;;;;;;;0.00;0.00;;;;;;;;;;1753329;28;20610;-76
2023/05/21 00:55:55;;;;;;;0.00;0.00;;;;;;;;;;1753235;28;20648;-76
2023/05/21 00:56:48;;;;;;;0.00;0.00;;;;;;;;;;1752891;28;20635;-76
2023/05/21 00:57:39;;;;;;;0.00;0.00;;;;;;;;;;1751239;28;20213;-76
2023/05/21 00:58:32;;;;;;;0.00;0.00;;;;;;;;;;1752437;28;20296;-76
2023/05/21 00:59:23;;;;;;;0.00;0.00;;;;;;;;;;1753106;28;20226;-76
2023/05/21 01:00:16;;;;;;;0.00;0.00;;;;;;;;;;1751895;28;20528;-76
2023/05/21 01:01:12;;;;;;;0.00;0.00;;;;;;;;;;1751009;28;20202;-76
2023/05/21 01:02:05;;;;;;;0.00;0.00;;;;;;;;;;1748718;28;20275;-76
2023/05/21 01:02:56;;;;;;;0.00;0.00;;;;;;;;;;1753342;28;20210;-76
2023/05/21 01:03:48;;;;;;;0.00;0.00;;;;;;;;;;1752421;28;20289;-76
2023/05/21 01:04:39;;;;;;;0.00;0.00;;;;;;;;;;1752951;28;20209;-76
2023/05/21 01:05:31;;;;;;;0.00;0.00;;;;;;;;;;1749665;28;20209;-76
2023/05/21 01:06:22;;;;;;;0.00;0.00;;;;;;;;;;1748614;28;20231;-76
2023/05/21 01:07:14;;;;;;;0.00;0.00;;;;;;;;;;1751924;28;20191;-76
2023/05/21 01:08:06;;;;;;;0.00;0.00;;;;;;;;;;1753136;28;20745;-76
2023/05/21 01:08:59;;;;;;;0.00;0.00;;;;;;;;;;1752449;28;20219;-76
2023/05/21 01:09:50;;;;;;;0.00;0.00;;;;;;;;;;1753073;28;20533;-76
2023/05/21 01:10:43;;;;;;;0.00;0.00;;;;;;;;;;1752695;28;20220;-76
2023/05/21 01:11:37;;;;;;;0.00;0.00;;;;;;;;;;1752946;28;20209;-76
2023/05/21 01:12:30;;;;;;;0.00;0.00;;;;;;;;;;1752667;28;20683;-76
2023/05/21 01:13:22;;;;;;;0.00;0.00;;;;;;;;;;1752558;28;20766;-76
2023/05/21 01:14:15;;;;;;;0.00;0.00;;;;;;;;;;1749528;28;20260;-76
2023/05/21 01:15:07;;;;;;;0.00;0.00;;;;;;;;;;1752690;28;20250;-76
2023/05/21 01:16:01;;;;;;;0.03;0.03;;;;;;;;;;1753169;28;20202;-77
2023/05/21 01:16:52;;;;;;;0.00;0.00;;;;;;;;;;1752581;28;20783;-76
2023/05/21 01:17:45;;;;;;;0.00;0.00;;;;;;;;;;1753100;28;20263;-76
2023/05/21 01:18:36;;;;;;;0.00;0.00;;;;;;;;;;1752512;28;20206;-76
2023/05/21 01:19:28;;;;;;;0.00;0.00;;;;;;;;;;1752596;28;20222;-76
2023/05/21 01:20:19;;;;;;;0.00;0.00;;;;;;;;;;1752780;28;20687;-76
2023/05/21 01:21:12;;;;;;;0.00;0.00;;;;;;;;;;1752871;28;20528;-76
2023/05/21 01:22:04;;;;;;;0.00;0.00;;;;;;;;;;1753002;28;20634;-77
2023/05/21 01:22:58;;;;;;;0.00;0.00;;;;;;;;;;1752412;28;20621;-77
2023/05/21 01:23:49;;;;;;;0.00;0.00;;;;;;;;;;1752442;28;20303;-77
2023/05/21 01:24:40;;;;;;;0.00;0.00;;;;;;;;;;1753264;28;20210;-77
2023/05/21 01:25:33;;;;;;;0.00;0.00;;;;;;;;;;1752911;28;20571;-76
2023/05/21 01:26:24;;;;;;;0.00;0.00;;;;;;;;;;1749190;28;20217;-76
2023/05/21 01:27:17;;;;;;;0.00;0.00;;;;;;;;;;1752606;28;20205;-76
2023/05/21 01:28:08;;;;;;;0.00;0.00;;;;;;;;;;1753402;28;20362;-76
2023/05/21 01:29:00;;;;;;;0.00;0.00;;;;;;;;;;1752704;28;20214;-76
2023/05/21 01:29:51;;;;;;;0.00;0.00;;;;;;;;;;1753380;28;20560;-76
2023/05/21 01:30:43;;;;;;;0.00;0.00;;;;;;;;;;1753201;28;20228;-76
2023/05/21 01:31:37;;;;;;;0.00;0.00;;;;;;;;;;1753116;28;20278;-76
2023/05/21 01:32:33;;;;;;;0.00;0.00;;;;;;;;;;1752860;28;20210;-75
2023/05/21 01:33:27;;;;;;;0.00;0.00;;;;;;;;;;1752173;28;20211;-76
2023/05/21 01:34:22;;;;;;;0.00;0.00;;;;;;;;;;1753279;28;20216;-76
2023/05/21 01:35:16;;;;;;;0.00;0.00;;;;;;;;;;1753436;28;20252;-76
2023/05/21 01:36:10;;;;;;;0.00;0.00;;;;;;;;;;1752967;28;20556;-75
2023/05/21 01:37:08;;;;;;;0.00;0.00;;;;;;;;;;1753133;28;20263;-76
2023/05/21 01:38:05;;;;;;;0.00;0.00;;;;;;;;;;1746394;28;20543;-75
2023/05/21 01:39:00;;;;;;;0.00;0.00;;;;;;;;;;1745790;28;20691;-75
2023/05/21 01:39:54;;;;;;;0.00;0.00;;;;;;;;;;1752422;28;20625;-75
2023/05/21 01:40:46;;;;;;;0.00;0.00;;;;;;;;;;1751728;28;20529;-75
2023/05/21 01:41:41;;;;;;;0.00;0.00;;;;;;;;;;1752647;28;20259;-75
2023/05/21 01:42:33;;;;;;;0.00;0.00;;;;;;;;;;1749759;28;20210;-75
2023/05/21 01:43:26;;;;;;;0.00;0.00;;;;;;;;;;1746499;28;20199;-75
2023/05/21 01:44:18;;;;;;;0.00;0.00;;;;;;;;;;1747330;28;20264;-75
2023/05/21 01:45:11;;;;;;;0.00;0.00;;;;;;;;;;1753021;28;20297;-75
2023/05/21 01:46:02;;;;;;;0.00;0.00;;;;;;;;;;1752949;28;20267;-75
2023/05/21 01:46:55;;;;;;;0.00;0.00;;;;;;;;;;1752374;28;20349;-75
2023/05/21 01:47:47;;;;;;;0.00;0.00;;;;;;;;;;1752564;28;20652;-75
2023/05/21 01:48:39;;;;;;;0.00;0.00;;;;;;;;;;1752411;28;20219;-75
2023/05/21 01:49:30;;;;;;;0.00;0.00;;;;;;;;;;1749325;28;20565;-75
2023/05/21 01:50:23;;;;;;;0.00;0.00;;;;;;;;;;1750762;28;20198;-75
2023/05/21 01:51:14;;;;;;;0.00;0.00;;;;;;;;;;1746838;28;20352;-75
2023/05/21 01:52:07;;;;;;;0.00;0.00;;;;;;;;;;1749171;28;20215;-75
2023/05/21 01:52:59;;;;;;;0.00;0.00;;;;;;;;;;1746168;28;20211;-75
2023/05/21 01:53:53;;;;;;;0.00;0.00;;;;;;;;;;1751347;28;20207;-75
2023/05/21 01:54:44;;;;;;;0.00;0.00;;;;;;;;;;1751151;28;20214;-75
2023/05/21 01:55:38;;;;;;;0.00;0.00;;;;;;;;;;1752606;28;20198;-75
2023/05/21 01:56:32;;;;;;;0.00;0.00;;;;;;;;;;1752648;28;20259;-75
2023/05/21 01:57:24;;;;;;;0.00;0.00;;;;;;;;;;1752389;28;20505;-75
2023/05/21 01:58:15;;;;;;;0.00;0.00;;;;;;;;;;1752481;28;20244;-75
2023/05/21 01:59:07;;;;;;;0.00;0.00;;;;;;;;;;1752334;28;20195;-75
2023/05/21 01:59:58;;;;;;;0.00;0.00;;;;;;;;;;1752861;28;20271;-75
2023/05/21 02:00:50;;;;;;;0.00;0.00;;;;;;;;;;1750242;28;20275;-75
2023/05/21 02:01:41;;;;;;;0.00;0.00;;;;;;;;;;1749326;28;20214;-75
2023/05/21 02:02:33;;;;;;;0.00;0.00;;;;;;;;;;1748763;28;20297;-75
2023/05/21 02:03:25;;;;;;;0.00;0.00;;;;;;;;;;1752544;28;20578;-75
2023/05/21 02:04:17;;;;;;;0.00;0.00;;;;;;;;;;1752318;28;20218;-75
2023/05/21 02:05:09;;;;;;;0.00;0.00;;;;;;;;;;1752681;28;20581;-75
2023/05/21 02:06:01;;;;;;;0.00;0.00;;;;;;;;;;1750849;28;20230;-75
2023/05/21 02:06:53;;;;;;;0.00;0.00;;;;;;;;;;1745062;28;20215;-75
2023/05/21 02:07:45;;;;;;;0.00;0.00;;;;;;;;;;1747575;28;20894;-74
2023/05/21 02:08:37;;;;;;;0.00;0.00;;;;;;;;;;1744986;28;20528;-75
2023/05/21 02:09:29;;;;;;;0.00;0.00;;;;;;;;;;1747628;28;20202;-75
2023/05/21 02:10:21;;;;;;;0.00;0.00;;;;;;;;;;1746998;28;20536;-75
2023/05/21 02:11:12;;;;;;;0.00;0.00;;;;;;;;;;1745529;28;20211;-75
2023/05/21 02:12:05;;;;;;;0.00;0.00;;;;;;;;;;1745619;28;20210;-75
2023/05/21 02:12:56;;;;;;;0.00;0.00;;;;;;;;;;1745536;28;20207;-75
2023/05/21 02:13:47;;;;;;;0.00;0.00;;;;;;;;;;1745286;28;20295;-75
2023/05/21 02:14:39;;;;;;;0.00;0.00;;;;;;;;;;1745529;28;20713;-75
2023/05/21 02:15:33;;;;;;;0.00;0.00;;;;;;;;;;1745566;28;20203;-75
2023/05/21 02:16:24;;;;;;;0.00;0.00;;;;;;;;;;1744143;28;20199;-75
2023/05/21 02:17:17;;;;;;;0.00;0.00;;;;;;;;;;1744909;28;20218;-75
2023/05/21 02:18:08;;;;;;;0.00;0.00;;;;;;;;;;1745692;28;20207;-75
2023/05/21 02:19:00;;;;;;;0.00;0.00;;;;;;;;;;1745008;28;20589;-75
2023/05/21 02:19:51;;;;;;;0.00;0.00;;;;;;;;;;1745551;28;20283;-75
2023/05/21 02:20:43;;;;;;;0.00;0.00;;;;;;;;;;1745468;28;20236;-75
2023/05/21 02:21:34;;;;;;;0.00;0.00;;;;;;;;;;1745315;28;20215;-75
2023/05/21 02:22:26;;;;;;;0.00;0.00;;;;;;;;;;1745247;28;20588;-75
2023/05/21 02:23:17;;;;;;;0.00;0.00;;;;;;;;;;1739854;28;20204;-75
2023/05/21 02:24:10;;;;;;;0.00;0.00;;;;;;;;;;1745363;28;20800;-75
2023/05/21 02:25:03;;;;;;;0.00;0.00;;;;;;;;;;1745755;28;20218;-75
2023/05/21 02:25:55;;;;;;;0.00;0.00;;;;;;;;;;1745267;28;20254;-74
2023/05/21 02:26:48;;;;;;;0.00;0.00;;;;;;;;;;1745487;28;20237;-74
2023/05/21 02:27:41;;;;;;;0.00;0.00;;;;;;;;;;1745277;28;20245;-74
2023/05/21 02:28:33;;;;;;;0.00;0.00;;;;;;;;;;1744987;28;20339;-74
2023/05/21 02:29:24;;;;;;;0.00;0.00;;;;;;;;;;1745423;28;20591;-74
2023/05/21 02:30:16;;;;;;;0.00;0.00;;;;;;;;;;1745593;28;20203;-76
2023/05/21 02:31:07;;;;;;;0.00;0.00;;;;;;;;;;1745766;28;20815;-75
2023/05/21 02:31:59;;;;;;;0.00;0.00;;;;;;;;;;1742016;28;20203;-75
2023/05/21 02:32:50;;;;;;;0.00;0.00;;;;;;;;;;1745480;28;20211;-75
2023/05/21 02:33:42;;;;;;;0.00;0.00;;;;;;;;;;1744952;28;20211;-74
2023/05/21 02:34:35;;;;;;;0.00;0.00;;;;;;;;;;1745620;28;20336;-74
2023/05/21 02:35:26;;;;;;;0.00;0.00;;;;;;;;;;1745316;28;20586;-76
2023/05/21 02:36:19;;;;;;;0.00;0.00;;;;;;;;;;1745462;28;20304;-75
2023/05/21 02:37:10;;;;;;;0.00;0.00;;;;;;;;;;1745238;28;20552;-75
2023/05/21 02:38:02;;;;;;;0.00;0.00;;;;;;;;;;1745660;28;20199;-75
2023/05/21 02:38:53;;;;;;;0.00;0.00;;;;;;;;;;1744945;28;20215;-74
2023/05/21 02:39:45;;;;;;;0.00;0.00;;;;;;;;;;1745434;28;20727;-74
2023/05/21 02:40:37;;;;;;;0.00;0.00;;;;;;;;;;1744958;28;20218;-75
2023/05/21 02:41:29;;;;;;;0.00;0.00;;;;;;;;;;1745489;28;20214;-77
2023/05/21 02:42:21;;;;;;;0.00;0.00;;;;;;;;;;1744990;28;20207;-77
2023/05/21 02:43:13;;;;;;;0.00;0.00;;;;;;;;;;1745474;28;20612;-77
2023/05/21 02:44:04;;;;;;;0.00;0.00;;;;;;;;;;1745234;28;20199;-78
2023/05/21 02:44:56;;;;;;;0.00;0.00;;;;;;;;;;1745116;28;20535;-77
2023/05/21 02:45:48;;;;;;;0.00;0.00;;;;;;;;;;1745551;28;20314;-78
2023/05/21 02:46:40;;;;;;;0.00;0.00;;;;;;;;;;1746239;28;20207;-77
2023/05/21 02:47:31;;;;;;;0.00;0.00;;;;;;;;;;1745907;28;20226;-78
2023/05/21 02:48:22;;;;;;;0.00;0.00;;;;;;;;;;1745050;28;20303;-78
2023/05/21 02:49:14;;;;;;;0.00;0.00;;;;;;;;;;1745187;28;20203;-77
2023/05/21 02:50:06;;;;;;;0.00;0.00;;;;;;;;;;1746029;28;20199;-78
2023/05/21 02:50:58;;;;;;;0.00;0.00;;;;;;;;;;1739663;28;20207;-78
2023/05/21 02:51:49;;;;;;;0.00;0.00;;;;;;;;;;1737990;28;20220;-78
2023/05/21 02:52:41;;;;;;;0.00;0.00;;;;;;;;;;1742523;28;20207;-78
2023/05/21 02:53:32;;;;;;;0.00;0.00;;;;;;;;;;1745075;28;20498;-78
2023/05/21 02:54:24;;;;;;;0.00;0.00;;;;;;;;;;1745298;28;20690;-77
2023/05/21 02:55:15;;;;;;;0.00;0.00;;;;;;;;;;1745372;28;20279;-76
2023/05/21 02:56:09;;;;;;;0.00;0.00;;;;;;;;;;1745661;28;20199;-76
2023/05/21 02:57:00;;;;;;;0.00;0.00;;;;;;;;;;1742345;28;20588;-77
2023/05/21 02:57:52;;;;;;;0.00;0.00;;;;;;;;;;1745456;28;20207;-75
2023/05/21 02:58:43;;;;;;;0.00;0.00;;;;;;;;;;1744656;28;20215;-74
2023/05/21 02:59:35;;;;;;;0.00;0.00;;;;;;;;;;1745584;28;20237;-74
2023/05/21 03:00:26;;;;;;;0.00;0.00;;;;;;;;;;1745361;28;20207;-76
2023/05/21 03:01:18;;;;;;;0.00;0.00;;;;;;;;;;1745433;28;20214;-76
2023/05/21 03:02:09;;;;;;;0.00;0.00;;;;;;;;;;1746977;28;20866;-76
2023/05/21 03:03:01;;;;;;;0.00;0.00;;;;;;;;;;1745264;28;20579;-75
2023/05/21 03:03:52;;;;;;;0.00;0.00;;;;;;;;;;1744990;28;20210;-76
2023/05/21 03:04:45;;;;;;;0.00;0.00;;;;;;;;;;1747155;28;20268;-76
2023/05/21 03:05:36;;;;;;;0.00;0.00;;;;;;;;;;1745521;28;20628;-77
2023/05/21 03:06:28;;;;;;;0.00;0.00;;;;;;;;;;1742321;28;20562;-76
2023/05/21 03:07:20;;;;;;;0.00;0.00;;;;;;;;;;1738549;28;20211;-76
2023/05/21 03:08:12;;;;;;;0.00;0.00;;;;;;;;;;1740170;28;20482;-76
2023/05/21 03:09:04;;;;;;;0.00;0.00;;;;;;;;;;1745190;28;20594;-75
2023/05/21 03:09:56;;;;;;;0.00;0.00;;;;;;;;;;1745455;28;20628;-75
2023/05/21 03:10:48;;;;;;;0.00;0.00;;;;;;;;;;1745212;28;20222;-75
2023/05/21 03:11:41;;;;;;;0.00;0.00;;;;;;;;;;1744314;28;20522;-75
2023/05/21 03:12:32;;;;;;;0.00;0.00;;;;;;;;;;1738476;28;20513;-75
2023/05/21 03:13:24;;;;;;;0.00;0.00;;;;;;;;;;1739864;28;20230;-75
2023/05/21 03:14:15;;;;;;;0.00;0.00;;;;;;;;;;1745308;28;20267;-76
2023/05/21 03:15:08;;;;;;;0.00;0.00;;;;;;;;;;1743881;28;20506;-76
2023/05/21 03:15:59;;;;;;;0.00;0.00;;;;;;;;;;1745244;28;20632;-75
2023/05/21 03:16:51;;;;;;;0.00;0.00;;;;;;;;;;1742648;28;20608;-76
2023/05/21 03:17:43;;;;;;;0.00;0.00;;;;;;;;;;1742787;28;20253;-76
2023/05/21 03:18:35;;;;;;;0.00;0.00;;;;;;;;;;1741722;28;20630;-76
2023/05/21 03:19:29;;;;;;;0.00;0.00;;;;;;;;;;1740338;28;20203;-76
2023/05/21 03:20:21;;;;;;;0.00;0.00;;;;;;;;;;1744212;28;20223;-76
2023/05/21 03:21:12;;;;;;;0.00;0.00;;;;;;;;;;1738662;28;20636;-76
2023/05/21 03:22:04;;;;;;;0.00;0.00;;;;;;;;;;1745202;28;20203;-76
2023/05/21 03:22:55;;;;;;;0.00;0.00;;;;;;;;;;1745310;28;20207;-76
2023/05/21 03:23:47;;;;;;;0.00;0.00;;;;;;;;;;1740115;28;20662;-76
2023/05/21 03:24:38;;;;;;;0.00;0.00;;;;;;;;;;1742509;28;20264;-76
2023/05/21 03:25:30;;;;;;;0.00;0.00;;;;;;;;;;1740105;28;20215;-76
2023/05/21 03:26:22;;;;;;;0.00;0.00;;;;;;;;;;1740092;28;20207;-76
2023/05/21 03:27:16;;;;;;;0.00;0.00;;;;;;;;;;1744753;28;20536;-76
2023/05/21 03:28:08;;;;;;;0.00;0.00;;;;;;;;;;1738739;28;20468;-76
2023/05/21 03:29:01;;;;;;;0.00;0.00;;;;;;;;;;1737960;28;20223;-76
2023/05/21 03:29:53;;;;;;;0.00;0.00;;;;;;;;;;1744090;28;20645;-76
2023/05/21 03:30:46;;;;;;;0.00;0.00;;;;;;;;;;1740605;28;20208;-76
2023/05/21 03:31:37;;;;;;;0.00;0.00;;;;;;;;;;1741339;28;20663;-76
2023/05/21 03:32:29;;;;;;;0.00;0.00;;;;;;;;;;1738515;28;20615;-76
2023/05/21 03:33:20;;;;;;;0.00;0.00;;;;;;;;;;1744894;28;20218;-76
2023/05/21 03:34:12;;;;;;;0.00;0.00;;;;;;;;;;1744947;28;20205;-76
2023/05/21 03:35:06;;;;;;;0.00;0.00;;;;;;;;;;1745959;28;20206;-76
2023/05/21 03:35:58;;;;;;;0.00;0.00;;;;;;;;;;1738671;28;20222;-76
2023/05/21 03:36:50;;;;;;;0.00;0.00;;;;;;;;;;1741067;28;20207;-76
2023/05/21 03:37:41;;;;;;;0.00;0.00;;;;;;;;;;1738601;28;20693;-76
2023/05/21 03:38:33;;;;;;;0.00;0.00;;;;;;;;;;1737938;28;20597;-76
2023/05/21 03:39:24;;;;;;;0.00;0.00;;;;;;;;;;1740272;28;20218;-76
2023/05/21 03:40:16;;;;;;;0.00;0.00;;;;;;;;;;1742795;28;20239;-76
2023/05/21 03:41:07;;;;;;;0.00;0.00;;;;;;;;;;1745600;28;20207;-76
2023/05/21 03:41:59;;;;;;;0.00;0.00;;;;;;;;;;1745455;28;20243;-76
2023/05/21 03:42:52;;;;;;;0.00;0.00;;;;;;;;;;1740620;28;20431;-76
2023/05/21 03:43:44;;;;;;;0.00;0.00;;;;;;;;;;1738869;28;20211;-76
2023/05/21 03:44:35;;;;;;;0.00;0.00;;;;;;;;;;1742496;28;20217;-76
2023/05/21 03:45:27;;;;;;;0.00;0.00;;;;;;;;;;1741263;28;20649;-76
2023/05/21 03:46:18;;;;;;;0.00;0.00;;;;;;;;;;1739231;28;20211;-76
2023/05/21 03:47:10;;;;;;;0.00;0.00;;;;;;;;;;1740010;28;20211;-76
2023/05/21 03:48:01;;;;;;;0.00;0.00;;;;;;;;;;1745384;28;20283;-76
2023/05/21 03:48:53;;;;;;;0.00;0.00;;;;;;;;;;1744339;28;20303;-76
2023/05/21 03:49:44;;;;;;;0.00;0.00;;;;;;;;;;1745451;28;20271;-76
2023/05/21 03:50:36;;;;;;;0.00;0.00;;;;;;;;;;1739134;28;20203;-77
2023/05/21 03:51:29;;;;;;;0.00;0.00;;;;;;;;;;1741004;28;20260;-77
2023/05/21 03:52:21;;;;;;;0.00;0.00;;;;;;;;;;1741126;28;20206;-77
2023/05/21 03:53:12;;;;;;;0.00;0.00;;;;;;;;;;1740789;28;20203;-76
2023/05/21 03:54:04;;;;;;;0.00;0.00;;;;;;;;;;1745540;28;20586;-76
2023/05/21 03:54:55;;;;;;;0.00;0.00;;;;;;;;;;1745130;28;20584;-76
2023/05/21 03:55:53;;;;;;;0.00;0.00;;;;;;;;;;1745335;28;20575;-76
2023/05/21 03:56:44;;;;;;;0.00;0.00;;;;;;;;;;1744285;28;20606;-76
2023/05/21 03:57:36;;;;;;;0.00;0.00;;;;;;;;;;1739918;28;20250;-76
2023/05/21 03:58:30;;;;;;;0.00;0.00;;;;;;;;;;1739780;28;20597;-75
2023/05/21 03:59:22;;;;;;;0.00;0.00;;;;;;;;;;1745005;28;20199;-76
2023/05/21 04:00:13;;;;;;;0.00;0.00;;;;;;;;;;1746688;28;20810;-76
2023/05/21 04:01:07;;;;;;;0.00;0.00;;;;;;;;;;1740451;28;20214;-76
2023/05/21 04:01:58;;;;;;;0.00;0.00;;;;;;;;;;1745918;28;20705;-75
2023/05/21 04:02:50;;;;;;;0.00;0.00;;;;;;;;;;1746875;28;20552;-75
2023/05/21 04:03:41;;;;;;;0.00;0.00;;;;;;;;;;1742262;28;20244;-75
2023/05/21 04:04:33;;;;;;;0.00;0.00;;;;;;;;;;1742778;28;20299;-75
2023/05/21 04:05:24;;;;;;;0.00;0.00;;;;;;;;;;1742253;28;20203;-76
2023/05/21 04:06:17;;;;;;;0.00;0.00;;;;;;;;;;1745282;28;20257;-76
2023/05/21 04:07:13;;;;;;;0.00;0.00;;;;;;;;;;1753303;28;20701;-75
2023/05/21 04:08:05;;;;;;;0.00;0.00;;;;;;;;;;1747684;28;20195;-75
2023/05/21 04:08:56;;;;;;;0.00;0.00;;;;;;;;;;1753157;28;20248;-75
2023/05/21 04:09:48;;;;;;;0.00;0.00;;;;;;;;;;1753512;28;20210;-76
2023/05/21 04:10:39;;;;;;;0.00;0.00;;;;;;;;;;1753184;28;20234;-75
2023/05/21 04:11:31;;;;;;;0.00;0.00;;;;;;;;;;1753423;28;20209;-75
2023/05/21 04:12:22;;;;;;;0.00;0.00;;;;;;;;;;1747778;28;20649;-75
2023/05/21 04:13:13;;;;;;;0.00;0.00;;;;;;;;;;1753164;28;20289;-75
2023/05/21 04:14:07;;;;;;;0.00;0.00;;;;;;;;;;1746489;28;20218;-76
2023/05/21 04:14:58;;;;;;;0.00;0.00;;;;;;;;;;1752934;28;20275;-76
2023/05/21 04:15:50;;;;;;;0.00;0.00;;;;;;;;;;1753548;28;20209;-75
2023/05/21 04:16:43;;;;;;;0.00;0.00;;;;;;;;;;1753376;28;20509;-75
2023/05/21 04:17:34;;;;;;;0.00;0.00;;;;;;;;;;1752979;28;20544;-75
2023/05/21 04:18:26;;;;;;;0.00;0.00;;;;;;;;;;1753134;28;20210;-75
2023/05/21 04:19:18;;;;;;;0.00;0.00;;;;;;;;;;1753170;28;20580;-76
2023/05/21 04:20:10;;;;;;;0.00;0.00;;;;;;;;;;1753721;28;20282;-75
2023/05/21 04:21:02;;;;;;;0.00;0.00;;;;;;;;;;1753129;28;20220;-75
2023/05/21 04:21:53;;;;;;;0.00;0.00;;;;;;;;;;1752876;28;20214;-75
2023/05/21 04:22:45;;;;;;;0.00;0.00;;;;;;;;;;1753361;28;20202;-75
2023/05/21 04:23:36;;;;;;;0.00;0.00;;;;;;;;;;1753195;28;20270;-75
2023/05/21 04:24:28;;;;;;;0.00;0.00;;;;;;;;;;1753032;28;20198;-75
2023/05/21 04:25:20;;;;;;;0.00;0.00;;;;;;;;;;1753420;28;20574;-76
2023/05/21 04:26:15;;;;;;;0.00;0.00;;;;;;;;;;1753408;28;20285;-76
2023/05/21 04:27:08;;;;;;;0.00;0.00;;;;;;;;;;1753205;28;20225;-76
2023/05/21 04:28:00;;;;;;;0.00;0.00;;;;;;;;;;1753226;28;20624;-75
2023/05/21 04:28:52;;;;;;;0.00;0.00;;;;;;;;;;1752677;28;20549;-76
2023/05/21 04:29:47;;;;;;;0.00;0.00;;;;;;;;;;1753511;28;20233;-76
2023/05/21 04:30:38;;;;;;;0.00;0.00;;;;;;;;;;1752948;28;20267;-76
2023/05/21 04:31:31;;;;;;;0.00;0.00;;;;;;;;;;1753502;28;20263;-76
2023/05/21 04:32:22;;;;;;;0.00;0.00;;;;;;;;;;1752712;28;20698;-75
2023/05/21 04:33:16;;;;;;;0.00;0.00;;;;;;;;;;1753825;28;20666;-75
2023/05/21 04:34:07;;;;;;;0.00;0.00;;;;;;;;;;1746436;28;20271;-75
2023/05/21 04:34:59;;;;;;;0.00;0.00;;;;;;;;;;1752383;28;20206;-76
2023/05/21 04:35:51;;;;;;;0.00;0.00;;;;;;;;;;1752336;28;20214;-77
2023/05/21 04:36:43;;;;;;;0.00;0.00;;;;;;;;;;1753115;28;20674;-76
2023/05/21 04:37:35;;;;;;;0.00;0.00;;;;;;;;;;1752985;28;20205;-76
2023/05/21 04:38:27;;;;;;;0.00;0.00;;;;;;;;;;1752816;28;20721;-76
2023/05/21 04:39:18;;;;;;;0.00;0.00;;;;;;;;;;1752964;28;20203;-76
2023/05/21 04:40:10;;;;;;;0.00;0.00;;;;;;;;;;1752335;28;20280;-76
2023/05/21 04:41:03;;;;;;;0.00;0.00;;;;;;;;;;1752825;28;20225;-75
2023/05/21 04:41:55;;;;;;;0.00;0.00;;;;;;;;;;1752526;28;20595;-76
2023/05/21 04:42:47;;;;;;;0.00;0.00;;;;;;;;;;1750664;28;20326;-76
2023/05/21 04:43:42;;;;;;;0.00;0.00;;;;;;;;;;1752603;28;20209;-76
2023/05/21 04:44:33;;;;;;;0.00;0.00;;;;;;;;;;1753230;28;21094;-76
2023/05/21 04:45:28;;;;;;;0.00;0.00;;;;;;;;;;1752674;28;20247;-76
2023/05/21 04:46:19;;;;;;;0.00;0.00;;;;;;;;;;1746976;28;20249;-76
2023/05/21 04:47:13;;;;;;;0.00;0.00;;;;;;;;;;1752646;28;20207;-76
2023/05/21 04:48:04;;;;;;;0.00;0.00;;;;;;;;;;1746576;28;20207;-77
2023/05/21 04:49:01;;;;;;;0.00;0.00;;;;;;;;;;1751098;28;20202;-76
2023/05/21 04:49:52;;;;;;;0.00;0.00;;;;;;;;;;1753169;28;20274;-76
2023/05/21 04:50:44;;;;;;;0.00;0.00;;;;;;;;;;1753044;28;20206;-77
2023/05/21 04:51:36;;;;;;;0.00;0.00;;;;;;;;;;1752830;28;20525;-77
2023/05/21 04:52:28;;;;;;;0.00;0.00;;;;;;;;;;1752840;28;20237;-77
2023/05/21 04:53:19;;;;;;;0.00;0.00;;;;;;;;;;1752721;28;20206;-77
2023/05/21 04:54:11;;;;;;;0.00;0.00;;;;;;;;;;1749334;28;20205;-77
2023/05/21 04:55:03;;;;;;;0.00;0.00;;;;;;;;;;1752677;28;20613;-77
2023/05/21 04:55:58;;;;;;;0.00;0.00;;;;;;;;;;1752782;28;20285;-78
2023/05/21 04:56:50;;;;;;;0.00;0.00;;;;;;;;;;1752927;28;20325;-78
2023/05/21 04:57:41;;;;;;;0.00;0.00;;;;;;;;;;1752922;28;20270;-78
2023/05/21 04:58:33;;;;;;;0.00;0.00;;;;;;;;;;1752594;28;20202;-77
2023/05/21 04:59:24;;;;;;;0.00;0.00;;;;;;;;;;1752763;28;20259;-76
2023/05/21 05:00:16;;;;;;;0.00;0.00;;;;;;;;;;1751895;28;20206;-75
2023/05/21 05:01:08;;;;;;;0.00;0.00;;;;;;;;;;1748320;28;20246;-75
2023/05/21 05:02:00;;;;;;;0.00;0.00;;;;;;;;;;1751688;28;20206;-75
2023/05/21 05:02:51;;;;;;;0.00;0.00;;;;;;;;;;1753059;28;20274;-76
2023/05/21 05:03:42;;;;;;;0.00;0.00;;;;;;;;;;1752321;28;20290;-75
2023/05/21 05:04:34;;;;;;;0.00;0.00;;;;;;;;;;1752797;28;20210;-75
2023/05/21 05:05:25;;;;;;;0.00;0.00;;;;;;;;;;1752707;28;20759;-75
2023/05/21 05:06:17;;;;;;;0.03;0.03;;;;;;;;;;1749009;28;20261;-76
2023/05/21 05:07:08;;;;;;;0.00;0.00;;;;;;;;;;1745973;28;20368;-76
2023/05/21 05:08:01;;;;;;;0.00;0.00;;;;;;;;;;1746025;28;20221;-76
2023/05/21 05:08:52;;;;;;;0.00;0.00;;;;;;;;;;1744075;28;20215;-76
2023/05/21 05:09:44;;;;;;;0.00;0.00;;;;;;;;;;1746129;28;20202;-76
2023/05/21 05:10:35;;;;;;;0.00;0.00;;;;;;;;;;1745911;28;20211;-76
2023/05/21 05:11:27;;;;;;;0.00;0.00;;;;;;;;;;1746111;28;20195;-76
2023/05/21 05:12:18;;;;;;;0.00;0.00;;;;;;;;;;1745345;28;20490;-76